Time;durP1;ratioP1;P1;durP2;ratioP2;P2;SDS_P1;SDS_P2;PMS_P1;PMS_P2;Temp;Humidity;BMP_temperature;BMP_pressure;BME280_temperature;BME280_humidity;BME280_pressure;Samples;Min_cycle;Max_cycle;Signal;HPM_P1;HPM_P2
2023/11/27 00:01:54;;;;;;;12.97;4.57;;;;;;;;;;5071793;28;20058;-82
2023/11/27 00:04:20;;;;;;;15.30;4.80;;;;;;;;;;5071534;28;20051;-82
2023/11/27 00:06:45;;;;;;;17.93;5.07;;;;;;;;;;5071473;28;20031;-82
2023/11/27 00:09:10;;;;;;;13.27;5.57;;;;;;;;;;5071508;28;20029;-81
2023/11/27 00:11:37;;;;;;;12.50;4.80;;;;;;;;;;5071240;28;20028;-81
2023/11/27 00:14:05;;;;;;;17.53;6.07;;;;;;;;;;5071158;28;20039;-82
2023/11/27 00:16:31;;;;;;;13.40;5.10;;;;;;;;;;5071305;28;20024;-81
2023/11/27 00:18:56;;;;;;;14.20;5.67;;;;;;;;;;5071320;28;20028;-82
2023/11/27 00:21:21;;;;;;;13.70;5.33;;;;;;;;;;5056246;28;20025;-82
2023/11/27 00:23:46;;;;;;;14.60;6.17;;;;;;;;;;5051274;28;20025;-82
2023/11/27 00:26:12;;;;;;;14.03;5.40;;;;;;;;;;5051706;28;20103;-82
2023/11/27 00:28:37;;;;;;;16.17;6.30;;;;;;;;;;5051343;28;20025;-82
2023/11/27 00:31:03;;;;;;;17.03;5.27;;;;;;;;;;5066575;28;20343;-82
2023/11/27 00:33:28;;;;;;;15.50;5.57;;;;;;;;;;5071130;28;20024;-81
2023/11/27 00:35:53;;;;;;;12.97;5.83;;;;;;;;;;5071068;28;20020;-82
2023/11/27 00:38:19;;;;;;;17.13;6.00;;;;;;;;;;5071058;28;20025;-82
2023/11/27 00:40:46;;;;;;;15.23;5.50;;;;;;;;;;5070905;28;20024;-81
2023/11/27 00:43:11;;;;;;;12.33;5.10;;;;;;;;;;5071054;28;20039;-81
2023/11/27 00:45:37;;;;;;;12.43;4.67;;;;;;;;;;5070966;28;20460;-82
2023/11/27 00:48:02;;;;;;;13.13;5.60;;;;;;;;;;5071081;28;20048;-82
2023/11/27 00:50:27;;;;;;;17.70;5.03;;;;;;;;;;5070818;28;20049;-81
2023/11/27 00:52:52;;;;;;;11.23;4.77;;;;;;;;;;5070935;28;20025;-82
2023/11/27 00:55:18;;;;;;;15.37;5.80;;;;;;;;;;5071165;28;20033;-82
2023/11/27 00:57:44;;;;;;;12.57;5.20;;;;;;;;;;5071049;28;20129;-82
2023/11/27 01:00:10;;;;;;;15.47;5.37;;;;;;;;;;5070846;28;20021;-82
2023/11/27 01:02:36;;;;;;;12.63;5.30;;;;;;;;;;5070847;28;20028;-82
2023/11/27 01:05:03;;;;;;;12.70;5.60;;;;;;;;;;5070854;28;20020;-82
2023/11/27 01:07:28;;;;;;;10.40;4.30;;;;;;;;;;5070867;28;20052;-82
2023/11/27 01:09:54;;;;;;;12.10;5.20;;;;;;;;;;5070512;28;20150;-82
2023/11/27 01:12:19;;;;;;;14.90;4.43;;;;;;;;;;5072098;28;20464;-82
2023/11/27 01:14:44;;;;;;;14.87;4.77;;;;;;;;;;5071918;28;20054;-82
2023/11/27 01:17:09;;;;;;;15.83;5.73;;;;;;;;;;5070553;28;20056;-82
2023/11/27 01:19:34;;;;;;;13.83;4.90;;;;;;;;;;5070549;28;20013;-81
2023/11/27 01:22:00;;;;;;;16.50;5.20;;;;;;;;;;5067458;28;20028;-82
2023/11/27 01:24:25;;;;;;;14.13;4.87;;;;;;;;;;5067256;28;20017;-81
2023/11/27 01:26:53;;;;;;;10.03;4.60;;;;;;;;;;5067171;28;20040;-81
2023/11/27 01:29:21;;;;;;;14.93;4.70;;;;;;;;;;5067240;28;20361;-81
2023/11/27 01:31:46;;;;;;;12.13;4.13;;;;;;;;;;5070414;28;20048;-82
2023/11/27 01:34:12;;;;;;;9.20;4.80;;;;;;;;;;5070515;28;20066;-82
2023/11/27 01:36:37;;;;;;;12.10;4.83;;;;;;;;;;5070409;28;20029;-82
2023/11/27 01:39:03;;;;;;;17.87;4.93;;;;;;;;;;5070523;28;20397;-82
2023/11/27 01:41:28;;;;;;;10.57;2.33;;;;;;;;;;5070523;28;20031;-81
2023/11/27 01:43:54;;;;;;;12.50;4.90;;;;;;;;;;5073495;28;20017;-83
2023/11/27 01:46:23;;;;;;;10.83;4.07;;;;;;;;;;5075465;28;20475;-82
2023/11/27 01:48:49;;;;;;;20.50;4.47;;;;;;;;;;5075391;28;20364;-82
2023/11/27 01:51:15;;;;;;;11.90;4.50;;;;;;;;;;5073823;28;20480;-82
2023/11/27 01:53:41;;;;;;;7.33;3.40;;;;;;;;;;5073883;28;20025;-82
2023/11/27 01:56:06;;;;;;;8.40;3.07;;;;;;;;;;5073823;28;20020;-82
2023/11/27 01:58:31;;;;;;;11.10;4.03;;;;;;;;;;5073700;28;20047;-81
2023/11/27 02:00:57;;;;;;;10.30;3.90;;;;;;;;;;5073768;28;20066;-82
2023/11/27 02:03:23;;;;;;;12.07;3.97;;;;;;;;;;5073731;28;20027;-82
2023/11/27 02:05:48;;;;;;;6.17;2.40;;;;;;;;;;5073649;28;20016;-82
2023/11/27 02:08:13;;;;;;;10.07;3.67;;;;;;;;;;5073578;28;20047;-82
2023/11/27 02:10:38;;;;;;;12.60;3.33;;;;;;;;;;5073472;28;20035;-82
2023/11/27 02:13:04;;;;;;;10.05;3.65;;;;;;;;;;5074821;28;20085;-83
2023/11/27 02:15:29;;;;;;;6.33;2.63;;;;;;;;;;5073319;28;20032;-81
2023/11/27 02:17:55;;;;;;;11.50;3.43;;;;;;;;;;5073368;28;20039;-82
2023/11/27 02:20:20;;;;;;;6.82;3.55;;;;;;;;;;5073161;28;20035;-82
2023/11/27 02:22:45;;;;;;;12.50;3.50;;;;;;;;;;5073380;28;20021;-82
2023/11/27 02:25:11;;;;;;;8.73;3.67;;;;;;;;;;5073274;28;20017;-83
2023/11/27 02:27:37;;;;;;;8.00;3.53;;;;;;;;;;5073438;28;20025;-82
2023/11/27 02:30:03;;;;;;;8.23;2.63;;;;;;;;;;5073231;28;20378;-81
2023/11/27 02:32:29;;;;;;;2.97;1.70;;;;;;;;;;5073432;28;20025;-82
2023/11/27 02:34:54;;;;;;;10.55;3.75;;;;;;;;;;5074548;28;20016;-82
2023/11/27 02:37:20;;;;;;;8.10;2.78;;;;;;;;;;5073239;28;20020;-82
2023/11/27 02:39:45;;;;;;;3.80;2.10;;;;;;;;;;5073019;28;20017;-82
2023/11/27 02:42:10;;;;;;;14.03;3.77;;;;;;;;;;5073123;28;20050;-82
2023/11/27 02:44:36;;;;;;;8.30;3.63;;;;;;;;;;5073047;28;20028;-82
2023/11/27 02:47:01;;;;;;;8.70;2.50;;;;;;;;;;5072938;28;20024;-82
2023/11/27 02:49:26;;;;;;;5.82;2.30;;;;;;;;;;5074310;28;20044;-82
2023/11/27 02:51:52;;;;;;;7.45;3.53;;;;;;;;;;5072786;28;20450;-82
2023/11/27 02:54:17;;;;;;;7.43;3.77;;;;;;;;;;5071728;28;20090;-82
2023/11/27 02:56:43;;;;;;;3.97;1.30;;;;;;;;;;5072690;28;20028;-82
2023/11/27 02:59:08;;;;;;;7.47;3.47;;;;;;;;;;5072832;28;20027;-82
2023/11/27 03:01:33;;;;;;;4.07;1.70;;;;;;;;;;5072725;28;20384;-82
2023/11/27 03:03:59;;;;;;;8.57;3.53;;;;;;;;;;5072631;28;20060;-82
2023/11/27 03:06:24;;;;;;;10.43;3.50;;;;;;;;;;5072571;28;20369;-82
2023/11/27 03:08:49;;;;;;;5.60;2.33;;;;;;;;;;5072469;28;20059;-82
2023/11/27 03:11:14;;;;;;;6.18;3.05;;;;;;;;;;5072246;28;20032;-82
2023/11/27 03:13:40;;;;;;;9.00;2.33;;;;;;;;;;5072150;28;20048;-82
2023/11/27 03:16:06;;;;;;;8.77;2.97;;;;;;;;;;5072544;28;20388;-82
2023/11/27 03:18:31;;;;;;;7.07;3.10;;;;;;;;;;5072527;28;20028;-82
2023/11/27 03:20:57;;;;;;;3.37;1.27;;;;;;;;;;5071989;28;20029;-82
2023/11/27 03:23:22;;;;;;;9.98;4.22;;;;;;;;;;5072068;28;20492;-82
2023/11/27 03:25:48;;;;;;;9.70;3.85;;;;;;;;;;5071965;28;20024;-82
2023/11/27 03:28:13;;;;;;;9.15;2.95;;;;;;;;;;5072040;28;20024;-82
2023/11/27 03:30:38;;;;;;;7.00;3.25;;;;;;;;;;5071820;28;20036;-82
2023/11/27 03:33:03;;;;;;;4.35;2.08;;;;;;;;;;5072027;28;20024;-82
2023/11/27 03:35:29;;;;;;;6.25;2.17;;;;;;;;;;5072291;28;20071;-82
2023/11/27 03:37:54;;;;;;;6.20;3.22;;;;;;;;;;5071856;28;20028;-81
2023/11/27 03:40:20;;;;;;;4.95;1.52;;;;;;;;;;5073075;28;20029;-83
2023/11/27 03:42:45;;;;;;;8.95;2.65;;;;;;;;;;5071927;28;20479;-82
2023/11/27 03:45:10;;;;;;;5.22;2.58;;;;;;;;;;5071731;28;20024;-82
2023/11/27 03:47:35;;;;;;;5.30;2.45;;;;;;;;;;5071768;28;20036;-82
2023/11/27 03:50:01;;;;;;;8.95;3.70;;;;;;;;;;5071483;28;20024;-82
2023/11/27 03:52:26;;;;;;;7.18;3.00;;;;;;;;;;5071289;28;20029;-81
2023/11/27 03:54:51;;;;;;;8.38;1.73;;;;;;;;;;5071418;28;20119;-81
2023/11/27 03:57:16;;;;;;;5.88;2.20;;;;;;;;;;5071097;28;20044;-82
2023/11/27 03:59:42;;;;;;;5.65;2.22;;;;;;;;;;5071073;28;20107;-82
2023/11/27 04:02:09;;;;;;;6.18;2.58;;;;;;;;;;5071608;28;20028;-82
2023/11/27 04:04:35;;;;;;;8.95;2.75;;;;;;;;;;5071440;28;20024;-82
2023/11/27 04:07:01;;;;;;;8.90;2.80;;;;;;;;;;5072595;28;20048;-82
2023/11/27 04:09:26;;;;;;;6.03;2.10;;;;;;;;;;5072306;28;20379;-82
2023/11/27 04:11:52;;;;;;;3.95;2.30;;;;;;;;;;5071153;28;20082;-82
2023/11/27 04:14:17;;;;;;;4.97;2.22;;;;;;;;;;5071184;28;20035;-82
2023/11/27 04:16:43;;;;;;;5.15;2.38;;;;;;;;;;5071084;28;20047;-82
2023/11/27 04:19:08;;;;;;;5.10;1.77;;;;;;;;;;5070912;28;20528;-82
2023/11/27 04:21:33;;;;;;;4.13;2.10;;;;;;;;;;5054685;28;20056;-82
2023/11/27 04:24:00;;;;;;;8.90;1.95;;;;;;;;;;5051136;28;20021;-82
2023/11/27 04:26:25;;;;;;;3.00;1.45;;;;;;;;;;5052607;28;20135;-82
2023/11/27 04:28:51;;;;;;;6.20;2.30;;;;;;;;;;5058724;28;20480;-82
2023/11/27 04:31:16;;;;;;;4.38;2.17;;;;;;;;;;5071083;28;20025;-82
2023/11/27 04:33:41;;;;;;;3.50;0.88;;;;;;;;;;5072492;28;20039;-82
2023/11/27 04:36:07;;;;;;;6.35;3.05;;;;;;;;;;5071011;28;20168;-82
2023/11/27 04:38:33;;;;;;;4.38;1.98;;;;;;;;;;5072138;28;20017;-82
2023/11/27 04:40:58;;;;;;;7.25;2.60;;;;;;;;;;5071050;28;20017;-82
2023/11/27 04:43:24;;;;;;;5.15;2.30;;;;;;;;;;5070954;28;20440;-82
2023/11/27 04:45:49;;;;;;;6.97;2.70;;;;;;;;;;5071019;28;20097;-82
2023/11/27 04:48:14;;;;;;;3.13;1.50;;;;;;;;;;5070787;28;20432;-82
2023/11/27 04:50:39;;;;;;;7.67;3.17;;;;;;;;;;5071012;28;20060;-82
2023/11/27 04:53:05;;;;;;;4.97;2.43;;;;;;;;;;5070782;28;20016;-81
2023/11/27 04:55:30;;;;;;;7.23;2.27;;;;;;;;;;5070803;28;20482;-81
2023/11/27 04:57:55;;;;;;;5.57;3.00;;;;;;;;;;5070796;28;20468;-81
2023/11/27 05:00:20;;;;;;;7.17;3.23;;;;;;;;;;5070730;28;20535;-82
2023/11/27 05:02:46;;;;;;;7.50;2.77;;;;;;;;;;5070777;28;20016;-81
2023/11/27 05:05:14;;;;;;;1.90;0.87;;;;;;;;;;5070671;28;20023;-81
2023/11/27 05:07:39;;;;;;;9.47;2.10;;;;;;;;;;5072056;28;20341;-82
2023/11/27 05:10:05;;;;;;;5.43;2.70;;;;;;;;;;5070540;28;20082;-82
2023/11/27 05:12:30;;;;;;;7.63;2.77;;;;;;;;;;5070625;28;20066;-82
2023/11/27 05:14:56;;;;;;;8.03;2.77;;;;;;;;;;5070560;28;20027;-82
2023/11/27 05:17:22;;;;;;;4.80;2.17;;;;;;;;;;5071365;28;20120;-82
2023/11/27 05:19:47;;;;;;;6.23;3.00;;;;;;;;;;5072586;28;20051;-82
2023/11/27 05:22:12;;;;;;;6.37;2.47;;;;;;;;;;5071348;28;20028;-82
2023/11/27 05:24:37;;;;;;;5.00;2.43;;;;;;;;;;5071223;28;20108;-81
2023/11/27 05:27:03;;;;;;;4.70;2.00;;;;;;;;;;5071214;28;20440;-82
2023/11/27 05:29:28;;;;;;;7.80;3.07;;;;;;;;;;5074184;28;20379;-82
2023/11/27 05:31:53;;;;;;;13.37;2.50;;;;;;;;;;5074373;28;20016;-82
2023/11/27 05:34:20;;;;;;;4.40;2.27;;;;;;;;;;5074420;28;20528;-82
2023/11/27 05:36:45;;;;;;;6.83;2.73;;;;;;;;;;5074266;28;20466;-82
2023/11/27 05:39:10;;;;;;;5.07;2.50;;;;;;;;;;5074107;28;20020;-82
2023/11/27 05:41:37;;;;;;;7.33;2.57;;;;;;;;;;5074101;28;20120;-82
2023/11/27 05:44:03;;;;;;;2.90;1.87;;;;;;;;;;5074472;28;20020;-82
2023/11/27 05:46:29;;;;;;;8.30;2.70;;;;;;;;;;5074116;28;20021;-82
2023/11/27 05:48:54;;;;;;;5.70;3.13;;;;;;;;;;5074073;28;20348;-81
2023/11/27 05:51:19;;;;;;;8.90;2.67;;;;;;;;;;5073850;28;20082;-82
2023/11/27 05:53:45;;;;;;;8.37;3.23;;;;;;;;;;5073962;28;20020;-82
2023/11/27 05:56:10;;;;;;;4.80;2.37;;;;;;;;;;5073936;28;20423;-82
2023/11/27 05:58:35;;;;;;;5.47;2.50;;;;;;;;;;5073633;28;20064;-82
2023/11/27 06:01:01;;;;;;;5.30;2.60;;;;;;;;;;5073852;28;20017;-82
2023/11/27 06:03:26;;;;;;;2.17;1.53;;;;;;;;;;5073771;28;20447;-81
2023/11/27 06:05:52;;;;;;;6.67;2.50;;;;;;;;;;5073761;28;20059;-82
2023/11/27 06:08:18;;;;;;;5.03;2.60;;;;;;;;;;5074804;28;20016;-82
2023/11/27 06:10:44;;;;;;;8.33;2.90;;;;;;;;;;5055049;28;20028;-82
2023/11/27 06:13:10;;;;;;;6.13;2.90;;;;;;;;;;5054984;28;20025;-82
2023/11/27 06:15:35;;;;;;;6.10;2.90;;;;;;;;;;5087087;28;20110;-82
2023/11/27 06:18:00;;;;;;;9.07;2.60;;;;;;;;;;5087182;28;20036;-82
2023/11/27 06:20:26;;;;;;;6.10;3.30;;;;;;;;;;5071295;28;20033;-82
2023/11/27 06:22:51;;;;;;;5.43;2.80;;;;;;;;;;5073492;28;20458;-82
2023/11/27 06:25:17;;;;;;;6.60;3.17;;;;;;;;;;5074584;28;20353;-82
2023/11/27 06:27:42;;;;;;;5.80;2.70;;;;;;;;;;5074149;28;20028;-82
2023/11/27 06:30:10;;;;;;;6.27;3.07;;;;;;;;;;5071685;28;20024;-82
2023/11/27 06:32:35;;;;;;;5.00;2.90;;;;;;;;;;5072106;28;20029;-82
2023/11/27 06:35:00;;;;;;;4.93;3.10;;;;;;;;;;5074035;28;20028;-82
2023/11/27 06:37:27;;;;;;;7.13;3.23;;;;;;;;;;5072925;28;20040;-82
2023/11/27 06:39:52;;;;;;;6.17;3.10;;;;;;;;;;5072965;28;20055;-82
2023/11/27 06:42:17;;;;;;;5.63;2.90;;;;;;;;;;5072936;28;20008;-82
2023/11/27 06:44:42;;;;;;;9.93;2.90;;;;;;;;;;5074256;28;20024;-82
2023/11/27 06:47:08;;;;;;;8.83;2.93;;;;;;;;;;5072872;28;20024;-82
2023/11/27 06:49:33;;;;;;;4.20;2.40;;;;;;;;;;5072797;28;20138;-81
2023/11/27 06:51:59;;;;;;;6.40;2.87;;;;;;;;;;5072637;28;20012;-81
2023/11/27 06:54:25;;;;;;;5.80;2.90;;;;;;;;;;5073998;28;20459;-81
2023/11/27 06:56:51;;;;;;;6.33;3.00;;;;;;;;;;5072298;28;20027;-81
2023/11/27 06:59:17;;;;;;;6.63;2.80;;;;;;;;;;5074049;28;20031;-81
2023/11/27 07:01:42;;;;;;;4.73;2.53;;;;;;;;;;5072597;28;20440;-81
2023/11/27 07:04:08;;;;;;;7.10;2.73;;;;;;;;;;5072372;28;20041;-81
2023/11/27 07:06:35;;;;;;;4.57;2.03;;;;;;;;;;5072325;28;20409;-82
2023/11/27 07:09:04;;;;;;;7.00;3.17;;;;;;;;;;5072498;28;20083;-83
2023/11/27 07:11:29;;;;;;;4.83;2.87;;;;;;;;;;5070294;28;20032;-81
2023/11/27 07:13:55;;;;;;;4.63;2.93;;;;;;;;;;5069765;28;20033;-81
2023/11/27 07:16:20;;;;;;;7.47;3.13;;;;;;;;;;5072208;28;20031;-81
2023/11/27 07:18:46;;;;;;;8.00;3.07;;;;;;;;;;5071871;28;20023;-81
2023/11/27 07:21:11;;;;;;;5.70;3.33;;;;;;;;;;5060412;28;20028;-81
2023/11/27 07:23:40;;;;;;;6.77;2.80;;;;;;;;;;5066786;28;20016;-81
2023/11/27 07:26:06;;;;;;;6.17;2.67;;;;;;;;;;5071480;28;20017;-80
2023/11/27 07:28:31;;;;;;;5.30;2.67;;;;;;;;;;5071690;28;20181;-80
2023/11/27 07:30:58;;;;;;;5.73;3.10;;;;;;;;;;5071620;28;20025;-80
2023/11/27 07:33:24;;;;;;;6.13;2.40;;;;;;;;;;5070875;28;20024;-80
2023/11/27 07:35:50;;;;;;;5.43;2.50;;;;;;;;;;5071833;28;20032;-81
2023/11/27 07:38:15;;;;;;;5.80;3.03;;;;;;;;;;5071818;28;20036;-81
2023/11/27 07:40:42;;;;;;;6.63;2.87;;;;;;;;;;5071287;28;20025;-81
2023/11/27 07:43:10;;;;;;;6.37;3.10;;;;;;;;;;5071035;28;20107;-81
2023/11/27 07:45:35;;;;;;;3.90;2.93;;;;;;;;;;5072476;28;20037;-81
2023/11/27 07:48:00;;;;;;;6.07;2.50;;;;;;;;;;5070987;28;20025;-81
2023/11/27 07:50:27;;;;;;;5.83;2.70;;;;;;;;;;5071226;28;20052;-81
2023/11/27 07:52:52;;;;;;;5.83;2.93;;;;;;;;;;5071140;28;20040;-81
2023/11/27 07:55:17;;;;;;;4.23;2.60;;;;;;;;;;5071209;28;20024;-80
2023/11/27 07:57:43;;;;;;;4.03;2.40;;;;;;;;;;5071201;28;20024;-81
2023/11/27 08:00:11;;;;;;;4.77;2.57;;;;;;;;;;5071123;28;20021;-81
2023/11/27 08:02:38;;;;;;;3.73;2.43;;;;;;;;;;5068851;28;20036;-81
2023/11/27 08:05:06;;;;;;;4.87;2.63;;;;;;;;;;5070856;28;20052;-80
2023/11/27 08:07:33;;;;;;;3.20;2.23;;;;;;;;;;5071654;28;20043;-80
2023/11/27 08:09:58;;;;;;;5.83;2.30;;;;;;;;;;5068269;28;20024;-81
2023/11/27 08:12:23;;;;;;;5.90;3.03;;;;;;;;;;5070320;28;20037;-81
2023/11/27 08:14:48;;;;;;;5.00;2.37;;;;;;;;;;5071100;28;20162;-81
2023/11/27 08:17:14;;;;;;;4.20;2.03;;;;;;;;;;5069181;28;20369;-81
2023/11/27 08:19:41;;;;;;;4.03;2.23;;;;;;;;;;5062583;28;20127;-81
2023/11/27 08:22:06;;;;;;;6.47;2.87;;;;;;;;;;5062867;28;20108;-81
2023/11/27 08:24:32;;;;;;;5.83;2.40;;;;;;;;;;5067016;28;20033;-80
2023/11/27 08:26:57;;;;;;;7.93;2.47;;;;;;;;;;5070200;28;20024;-80
2023/11/27 08:29:25;;;;;;;4.07;2.30;;;;;;;;;;5070444;28;20032;-81
2023/11/27 08:31:52;;;;;;;4.77;1.90;;;;;;;;;;5068923;28;20040;-81
2023/11/27 08:34:17;;;;;;;4.50;2.10;;;;;;;;;;5065819;28;20034;-81
2023/11/27 08:36:43;;;;;;;4.50;1.90;;;;;;;;;;5070195;28;20119;-80
2023/11/27 08:39:10;;;;;;;3.33;1.77;;;;;;;;;;5071604;28;20138;-80
2023/11/27 08:41:36;;;;;;;4.43;2.23;;;;;;;;;;5070267;28;20111;-80
2023/11/27 08:44:01;;;;;;;6.93;2.00;;;;;;;;;;5066217;28;20103;-81
2023/11/27 08:46:26;;;;;;;4.13;1.70;;;;;;;;;;5069545;28;20024;-81
2023/11/27 08:48:51;;;;;;;3.27;1.67;;;;;;;;;;5070459;28;20033;-81
2023/11/27 08:51:17;;;;;;;2.20;1.50;;;;;;;;;;5070193;28;20032;-81
2023/11/27 08:53:42;;;;;;;2.57;1.60;;;;;;;;;;5069202;28;20035;-81
2023/11/27 08:56:07;;;;;;;2.53;1.50;;;;;;;;;;5068139;28;20063;-79
2023/11/27 08:58:34;;;;;;;2.73;1.50;;;;;;;;;;5069345;28;20028;-80
2023/11/27 09:01:04;;;;;;;2.47;1.40;;;;;;;;;;5058754;28;20021;-80
2023/11/27 09:03:29;;;;;;;2.20;1.37;;;;;;;;;;5060033;28;20387;-80
2023/11/27 09:05:55;;;;;;;2.80;1.40;;;;;;;;;;5070128;28;20097;-81
2023/11/27 09:08:21;;;;;;;3.00;1.40;;;;;;;;;;5070485;28;20024;-81
2023/11/27 09:10:48;;;;;;;3.77;1.50;;;;;;;;;;5071211;28;20029;-79
2023/11/27 09:13:13;;;;;;;2.87;1.60;;;;;;;;;;5069540;28;20480;-79
2023/11/27 09:15:39;;;;;;;2.70;1.47;;;;;;;;;;5069327;28;20040;-78
2023/11/27 09:18:04;;;;;;;3.40;1.70;;;;;;;;;;5069185;28;20360;-79
2023/11/27 09:20:29;;;;;;;5.00;2.03;;;;;;;;;;5069995;28;20437;-79
2023/11/27 09:22:56;;;;;;;3.03;1.37;;;;;;;;;;5067945;28;20107;-79
2023/11/27 09:25:21;;;;;;;3.13;1.70;;;;;;;;;;5066827;28;20478;-79
2023/11/27 09:27:46;;;;;;;2.40;1.20;;;;;;;;;;5055600;28;20029;-79
2023/11/27 09:30:12;;;;;;;2.80;1.53;;;;;;;;;;5050050;28;20089;-79
2023/11/27 09:32:38;;;;;;;2.90;1.53;;;;;;;;;;5051405;28;20032;-79
2023/11/27 09:35:04;;;;;;;3.30;1.50;;;;;;;;;;5068034;28;20024;-79
2023/11/27 09:37:30;;;;;;;2.80;1.57;;;;;;;;;;5066091;28;20046;-79
2023/11/27 09:39:55;;;;;;;3.73;1.43;;;;;;;;;;5069210;28;20111;-79
2023/11/27 09:42:20;;;;;;;2.07;1.30;;;;;;;;;;5069709;28;20025;-79
2023/11/27 09:44:46;;;;;;;2.50;1.43;;;;;;;;;;5071179;28;20103;-79
2023/11/27 09:47:12;;;;;;;2.67;1.67;;;;;;;;;;5071289;28;20048;-79
2023/11/27 09:49:41;;;;;;;3.63;1.83;;;;;;;;;;5070429;28;20078;-78
2023/11/27 09:52:12;;;;;;;7.70;1.70;;;;;;;;;;5069854;28;20111;-79
2023/11/27 09:54:39;;;;;;;3.40;2.00;;;;;;;;;;5070429;28;20025;-79
2023/11/27 09:57:07;;;;;;;2.23;1.40;;;;;;;;;;5069964;28;20086;-79
2023/11/27 09:59:38;;;;;;;3.13;1.90;;;;;;;;;;5070162;28;20090;-79
2023/11/27 10:02:03;;;;;;;3.25;1.55;;;;;;;;;;5070095;28;20024;-79
2023/11/27 10:04:30;;;;;;;3.67;1.83;;;;;;;;;;5072092;28;20039;-79
2023/11/27 10:06:57;;;;;;;2.03;1.30;;;;;;;;;;5072178;28;20020;-79
2023/11/27 10:09:22;;;;;;;2.33;1.20;;;;;;;;;;5068939;28;20222;-79
2023/11/27 10:11:50;;;;;;;3.43;1.50;;;;;;;;;;5068993;28;20059;-83
2023/11/27 10:14:18;;;;;;;2.00;1.07;;;;;;;;;;5066078;28;20482;-81
2023/11/27 10:16:43;;;;;;;2.10;1.13;;;;;;;;;;5065814;28;20016;-82
2023/11/27 10:19:13;;;;;;;1.57;1.00;;;;;;;;;;5072187;28;20019;-83
2023/11/27 10:21:38;;;;;;;1.77;1.10;;;;;;;;;;5061472;28;20469;-80
2023/11/27 10:24:10;;;;;;;1.93;0.90;;;;;;;;;;5065360;28;20021;-82
2023/11/27 10:26:37;;;;;;;1.40;0.98;;;;;;;;;;5091492;28;20017;-82
2023/11/27 10:29:03;;;;;;;1.60;1.10;;;;;;;;;;5070689;28;20448;-82
2023/11/27 10:31:28;;;;;;;2.43;1.00;;;;;;;;;;5073447;28;20031;-82
2023/11/27 10:33:56;;;;;;;5.57;1.27;;;;;;;;;;5071920;28;20481;-81
2023/11/27 10:36:24;;;;;;;2.17;1.10;;;;;;;;;;5069532;28;20024;-80
2023/11/27 10:39:18;;;;;;;1.17;0.90;;;;;;;;;;5072278;28;20028;-81
2023/11/27 10:41:46;;;;;;;2.20;1.03;;;;;;;;;;5060167;28;20479;-81
2023/11/27 10:44:15;;;;;;;1.60;0.80;;;;;;;;;;5073094;28;20479;-81
2023/11/27 10:46:41;;;;;;;1.80;0.93;;;;;;;;;;5074034;28;20023;-81
2023/11/27 10:49:09;;;;;;;3.03;1.07;;;;;;;;;;5072643;28;20024;-81
2023/11/27 10:51:35;;;;;;;2.93;1.23;;;;;;;;;;5072944;28;20021;-81
2023/11/27 10:54:01;;;;;;;1.30;0.73;;;;;;;;;;5072850;28;20486;-81
2023/11/27 10:56:28;;;;;;;2.27;1.20;;;;;;;;;;5069657;28;20115;-81
2023/11/27 10:58:55;;;;;;;4.07;1.13;;;;;;;;;;5072763;28;20059;-81
2023/11/27 11:01:23;;;;;;;1.33;0.87;;;;;;;;;;5072602;28;20143;-81
2023/11/27 11:03:51;;;;;;;2.47;1.00;;;;;;;;;;5074000;28;20020;-81
2023/11/27 11:06:19;;;;;;;1.83;1.00;;;;;;;;;;5072087;28;20021;-81
2023/11/27 11:08:45;;;;;;;1.87;1.00;;;;;;;;;;5074122;28;20438;-82
2023/11/27 11:11:11;;;;;;;2.50;0.90;;;;;;;;;;5072612;28;20016;-82
2023/11/27 11:13:36;;;;;;;1.60;0.80;;;;;;;;;;5072224;28;20025;-82
2023/11/27 11:16:14;;;;;;;2.17;0.93;;;;;;;;;;5071625;28;20043;-81
2023/11/27 11:18:51;;;;;;;1.17;0.60;;;;;;;;;;5072450;28;20468;-81
2023/11/27 11:21:17;;;;;;;3.50;1.00;;;;;;;;;;5069195;28;20369;-81
2023/11/27 11:23:51;;;;;;;1.43;0.80;;;;;;;;;;5052631;28;20035;-81
2023/11/27 11:26:40;;;;;;;1.80;0.90;;;;;;;;;;5072178;28;20020;-81
2023/11/27 11:29:14;;;;;;;0.80;0.53;;;;;;;;;;5072156;28;20020;-81
2023/11/27 11:31:48;;;;;;;1.83;1.00;;;;;;;;;;5073453;28;20024;-81
2023/11/27 11:34:22;;;;;;;0.80;0.70;;;;;;;;;;5072308;28;20020;-81
2023/11/27 11:36:52;;;;;;;1.37;0.80;;;;;;;;;;5072264;28;20138;-81
2023/11/27 11:39:19;;;;;;;1.13;0.70;;;;;;;;;;5071991;28;20028;-81
2023/11/27 11:41:44;;;;;;;2.00;0.90;;;;;;;;;;5072332;28;20024;-81
2023/11/27 11:44:18;;;;;;;1.20;0.90;;;;;;;;;;5071691;28;20027;-81
2023/11/27 11:46:46;;;;;;;1.17;0.77;;;;;;;;;;5073299;28;20008;-81
2023/11/27 11:49:15;;;;;;;1.50;1.00;;;;;;;;;;5071734;28;20467;-80
2023/11/27 11:51:59;;;;;;;1.70;0.87;;;;;;;;;;5071303;28;20020;-81
2023/11/27 11:54:32;;;;;;;1.57;0.83;;;;;;;;;;5071807;28;20029;-81
2023/11/27 11:57:20;;;;;;;1.67;0.80;;;;;;;;;;5071613;28;20141;-81
2023/11/27 11:59:47;;;;;;;2.20;1.10;;;;;;;;;;5071683;28;20097;-80
2023/11/27 12:02:17;;;;;;;0.60;0.40;;;;;;;;;;5071365;28;20025;-80
2023/11/27 12:04:42;;;;;;;0.77;0.60;;;;;;;;;;5071012;28;20091;-81
2023/11/27 12:07:08;;;;;;;1.43;0.87;;;;;;;;;;5071277;28;20029;-81
2023/11/27 12:09:34;;;;;;;1.67;0.73;;;;;;;;;;5071050;28;20521;-81
2023/11/27 12:12:00;;;;;;;5.33;1.40;;;;;;;;;;5071154;28;20028;-81
2023/11/27 12:14:26;;;;;;;3.80;1.77;;;;;;;;;;5071167;28;20447;-81
2023/11/27 12:16:51;;;;;;;3.40;1.50;;;;;;;;;;5070666;28;20028;-81
2023/11/27 12:19:19;;;;;;;1.70;1.00;;;;;;;;;;5070590;28;20078;-81
2023/11/27 12:21:46;;;;;;;1.47;0.70;;;;;;;;;;5054679;28;20020;-81
2023/11/27 12:24:11;;;;;;;2.40;0.80;;;;;;;;;;5071082;28;20134;-82
2023/11/27 12:26:37;;;;;;;1.87;1.10;;;;;;;;;;5071212;28;20024;-81
2023/11/27 12:29:02;;;;;;;1.53;1.00;;;;;;;;;;5071025;28;20043;-82
2023/11/27 12:31:27;;;;;;;1.10;0.80;;;;;;;;;;5071269;28;20024;-81
2023/11/27 12:33:53;;;;;;;1.40;0.70;;;;;;;;;;5071303;28;20031;-82
2023/11/27 12:36:21;;;;;;;1.27;0.87;;;;;;;;;;5071045;28;20059;-82
2023/11/27 12:38:50;;;;;;;2.47;1.10;;;;;;;;;;5071077;28;20031;-82
2023/11/27 12:41:16;;;;;;;1.27;0.70;;;;;;;;;;5073036;28;20078;-87
2023/11/27 12:43:42;;;;;;;1.13;0.80;;;;;;;;;;5071472;28;20047;-82
2023/11/27 12:46:13;;;;;;;1.53;0.90;;;;;;;;;;5071239;28;20016;-83
2023/11/27 12:48:40;;;;;;;1.13;0.80;;;;;;;;;;5072760;28;20472;-83
2023/11/27 12:51:12;;;;;;;1.13;0.80;;;;;;;;;;5072712;28;20031;-83
2023/11/27 12:53:37;;;;;;;2.88;1.00;;;;;;;;;;5071904;28;20087;-83
2023/11/27 12:56:03;;;;;;;1.30;0.80;;;;;;;;;;5070997;28;20452;-83
2023/11/27 12:58:28;;;;;;;1.20;0.63;;;;;;;;;;5071191;28;20502;-83
2023/11/27 13:00:56;;;;;;;1.17;0.90;;;;;;;;;;5071204;28;20013;-83
2023/11/27 13:03:22;;;;;;;1.67;1.00;;;;;;;;;;5071087;28;20021;-83
2023/11/27 13:05:52;;;;;;;2.50;1.50;;;;;;;;;;5071056;28;20388;-83
2023/11/27 13:08:23;;;;;;;3.07;1.53;;;;;;;;;;5070553;28;20048;-83
2023/11/27 13:10:50;;;;;;;2.00;1.23;;;;;;;;;;5070764;28;20025;-83
2023/11/27 13:13:20;;;;;;;1.87;1.30;;;;;;;;;;5070435;28;20032;-83
2023/11/27 13:15:45;;;;;;;2.00;1.13;;;;;;;;;;5071414;28;20024;-83
2023/11/27 13:18:15;;;;;;;4.70;1.40;;;;;;;;;;5071515;28;20051;-83
2023/11/27 13:20:40;;;;;;;4.73;1.03;;;;;;;;;;5072757;28;20703;-83
2023/11/27 13:23:06;;;;;;;1.40;0.80;;;;;;;;;;5072581;28;20017;-84
2023/11/27 13:25:37;;;;;;;2.23;1.00;;;;;;;;;;5070825;28;20020;-83
2023/11/27 13:28:07;;;;;;;2.37;1.00;;;;;;;;;;5081639;28;20360;-84
2023/11/27 13:30:32;;;;;;;2.30;1.03;;;;;;;;;;5072393;28;20096;-86
2023/11/27 13:32:58;;;;;;;2.80;1.20;;;;;;;;;;5071187;28;20086;-87
2023/11/27 13:35:33;;;;;;;1.30;0.90;;;;;;;;;;5071777;28;20052;-86
2023/11/27 13:38:00;;;;;;;1.10;0.80;;;;;;;;;;5071601;28;20329;-86
2023/11/27 13:40:28;;;;;;;1.83;0.70;;;;;;;;;;5075425;28;20028;-86
2023/11/27 13:42:53;;;;;;;1.63;1.00;;;;;;;;;;5075481;28;20518;-87
2023/11/27 13:45:25;;;;;;;0.90;0.70;;;;;;;;;;5075300;28;20024;-86
2023/11/27 13:47:53;;;;;;;1.95;1.20;;;;;;;;;;5075500;28;20138;-87
2023/11/27 13:50:18;;;;;;;6.33;1.17;;;;;;;;;;5075444;28;20111;-86
2023/11/27 13:52:43;;;;;;;3.73;0.90;;;;;;;;;;5075213;28;20044;-87
2023/11/27 13:55:10;;;;;;;1.50;1.00;;;;;;;;;;5075070;28;20108;-87
2023/11/27 13:57:36;;;;;;;1.50;0.90;;;;;;;;;;5074943;28;20028;-86
2023/11/27 14:00:18;;;;;;;1.47;0.97;;;;;;;;;;5074962;28;20016;-86
2023/11/27 14:02:43;;;;;;;1.75;1.20;;;;;;;;;;5075061;28;20016;-86
2023/11/27 14:05:09;;;;;;;1.47;0.73;;;;;;;;;;5074898;28;20162;-86
2023/11/27 14:07:39;;;;;;;1.20;0.77;;;;;;;;;;5075144;28;20027;-86
2023/11/27 14:10:06;;;;;;;1.97;1.10;;;;;;;;;;5074790;28;20492;-86
2023/11/27 14:12:43;;;;;;;3.47;1.00;;;;;;;;;;5074777;28;20023;-86
2023/11/27 14:15:21;;;;;;;1.53;0.90;;;;;;;;;;5074647;28;20183;-86
2023/11/27 14:17:57;;;;;;;1.63;0.90;;;;;;;;;;5071052;28;20025;-86
2023/11/27 14:23:25;;;;;;;4.13;1.30;;;;;;;;;;5076225;28;20043;-86
2023/11/27 14:26:21;;;;;;;1.73;1.07;;;;;;;;;;5074491;28;20436;-86
2023/11/27 14:31:14;;;;;;;1.93;1.20;;;;;;;;;;5075562;28;20040;-86
2023/11/27 14:33:39;;;;;;;1.77;1.07;;;;;;;;;;5074362;28;20021;-86
2023/11/27 14:36:05;;;;;;;2.17;1.20;;;;;;;;;;5074101;28;20024;-86
2023/11/27 14:38:30;;;;;;;3.60;1.17;;;;;;;;;;5074213;28;20099;-86
2023/11/27 14:40:57;;;;;;;2.03;1.40;;;;;;;;;;5074076;28;20048;-86
2023/11/27 14:43:25;;;;;;;2.60;1.70;;;;;;;;;;5075413;28;20383;-86